createdAt,value
2023-12-20T00:01:10.909Z,2.03
2023-12-20T00:02:33.140Z,1.77
2023-12-20T00:03:55.504Z,1.40
2023-12-20T00:05:17.891Z,1.77
2023-12-20T00:06:40.104Z,1.50
2023-12-20T00:08:02.495Z,1.60
2023-12-20T00:09:24.652Z,1.70
2023-12-20T00:10:46.751Z,1.53
2023-12-20T00:12:09.153Z,1.50
2023-12-20T00:13:31.269Z,2.03
2023-12-20T00:14:53.495Z,1.80
2023-12-20T00:16:15.662Z,1.40
2023-12-20T00:17:37.894Z,1.97
2023-12-20T00:19:00.052Z,1.40
2023-12-20T00:20:22.325Z,1.47
2023-12-20T00:21:44.475Z,1.83
2023-12-20T00:23:06.608Z,1.73
2023-12-20T00:24:28.723Z,1.70
2023-12-20T00:25:50.847Z,1.67
2023-12-20T00:27:13.301Z,2.20
2023-12-20T00:28:35.507Z,1.83
2023-12-20T00:29:57.809Z,2.57
2023-12-20T00:31:20.645Z,1.67
2023-12-20T00:32:47.695Z,1.30
2023-12-20T00:34:10.486Z,1.47
2023-12-20T00:35:33.184Z,1.40
2023-12-20T00:36:56.210Z,2.90
2023-12-20T00:38:18.606Z,1.43
2023-12-20T00:39:41.108Z,1.63
2023-12-20T00:41:04.038Z,1.50
2023-12-20T00:42:26.357Z,1.60
2023-12-20T00:43:49.005Z,1.37
2023-12-20T00:45:11.547Z,1.93
2023-12-20T00:46:34.228Z,1.30
2023-12-20T00:47:56.676Z,1.77
2023-12-20T00:49:21.168Z,1.87
2023-12-20T00:50:43.953Z,1.60
2023-12-20T00:52:06.685Z,1.40
2023-12-20T00:53:29.255Z,1.60
2023-12-20T00:54:51.864Z,1.40
2023-12-20T00:56:13.932Z,1.50
2023-12-20T00:57:36.221Z,1.10
2023-12-20T00:58:58.387Z,1.70
2023-12-20T01:00:20.722Z,1.40
2023-12-20T01:01:43.313Z,1.10
2023-12-20T01:03:05.606Z,1.60
2023-12-20T01:04:27.749Z,1.17
2023-12-20T01:05:49.930Z,1.50
2023-12-20T01:07:12.109Z,1.20
2023-12-20T01:08:36.155Z,1.37
2023-12-20T01:09:58.353Z,1.20
2023-12-20T01:11:20.451Z,1.60
2023-12-20T01:12:42.660Z,1.30
2023-12-20T01:14:04.754Z,1.40
2023-12-20T01:15:26.861Z,1.20
2023-12-20T01:16:49.158Z,1.93
2023-12-20T01:18:11.377Z,1.80
2023-12-20T01:19:33.657Z,2.13
2023-12-20T01:20:55.927Z,2.70
2023-12-20T01:22:18.040Z,1.97
2023-12-20T01:23:40.176Z,1.90
2023-12-20T01:25:03.620Z,1.93
2023-12-20T01:26:25.811Z,1.80
2023-12-20T01:27:48.249Z,1.90
2023-12-20T01:29:10.929Z,1.67
2023-12-20T01:30:33.089Z,2.03
2023-12-20T01:31:55.287Z,1.70
2023-12-20T01:33:17.493Z,1.97
2023-12-20T01:34:39.684Z,1.60
2023-12-20T01:36:01.832Z,1.80
2023-12-20T01:37:26.434Z,1.60
2023-12-20T01:38:48.528Z,1.60
2023-12-20T01:40:11.229Z,1.90
2023-12-20T01:41:33.442Z,1.77
2023-12-20T01:43:03.756Z,1.60
2023-12-20T01:44:26.079Z,1.93
2023-12-20T01:45:49.012Z,1.93
2023-12-20T01:47:11.387Z,2.23
2023-12-20T01:48:33.591Z,1.50
2023-12-20T01:49:58.089Z,1.50
2023-12-20T01:51:21.097Z,1.20
2023-12-20T01:52:44.850Z,1.50
2023-12-20T01:54:07.333Z,1.40
2023-12-20T01:55:33.263Z,1.37
2023-12-20T01:56:55.608Z,1.63
2023-12-20T01:58:18.598Z,1.40
2023-12-20T01:59:41.573Z,1.50
2023-12-20T02:01:03.837Z,1.90
2023-12-20T02:02:28.563Z,1.40
2023-12-20T02:03:52.304Z,1.40
2023-12-20T02:05:14.843Z,1.73
2023-12-20T02:06:40.876Z,1.37
2023-12-20T02:08:03.204Z,1.37
2023-12-20T02:09:25.322Z,1.43
2023-12-20T02:10:48.172Z,1.60
2023-12-20T02:12:10.748Z,1.10
2023-12-20T02:13:33.177Z,1.53
2023-12-20T02:14:55.495Z,1.50
2023-12-20T02:16:17.908Z,1.23
2023-12-20T02:17:41.067Z,1.20
2023-12-20T02:19:08.992Z,1.70
2023-12-20T02:20:31.082Z,1.57
2023-12-20T02:22:07.453Z,1.53
2023-12-20T02:23:29.562Z,1.30
2023-12-20T02:24:51.798Z,1.40
2023-12-20T02:26:15.000Z,2.97
2023-12-20T02:27:37.529Z,1.43
2023-12-20T02:29:00.298Z,1.23
2023-12-20T02:30:22.431Z,1.50
2023-12-20T02:31:44.560Z,1.40
2023-12-20T02:33:10.063Z,1.27
2023-12-20T02:34:32.477Z,1.10
2023-12-20T02:35:54.768Z,1.43
2023-12-20T02:37:17.176Z,2.03
2023-12-20T02:38:39.310Z,1.23
2023-12-20T02:40:01.448Z,1.40
2023-12-20T02:41:23.633Z,1.40
2023-12-20T02:42:45.856Z,1.80
2023-12-20T02:44:07.975Z,1.50
2023-12-20T02:45:30.106Z,1.90
2023-12-20T02:46:52.201Z,1.63
2023-12-20T02:48:14.360Z,1.17
2023-12-20T02:49:36.684Z,1.93
2023-12-20T02:50:58.926Z,1.27
2023-12-20T02:52:21.257Z,1.30
2023-12-20T02:53:43.489Z,1.50
2023-12-20T02:55:05.880Z,1.63
2023-12-20T02:56:27.987Z,1.60
2023-12-20T02:57:50.671Z,2.13
2023-12-20T02:59:12.898Z,1.87
2023-12-20T03:00:35.201Z,1.60
2023-12-20T03:01:57.457Z,1.97
2023-12-20T03:03:19.691Z,1.63
2023-12-20T03:04:41.868Z,1.30
2023-12-20T03:06:04.209Z,1.30
2023-12-20T03:07:26.546Z,1.20
2023-12-20T03:08:48.777Z,1.90
2023-12-20T03:10:19.084Z,1.63
2023-12-20T03:11:42.875Z,1.53
2023-12-20T03:13:05.338Z,1.50
2023-12-20T03:14:27.505Z,1.57
2023-12-20T03:15:49.597Z,1.57
2023-12-20T03:17:11.907Z,1.20
2023-12-20T03:18:33.972Z,1.00
2023-12-20T03:19:56.163Z,1.50
2023-12-20T03:21:18.288Z,2.07
2023-12-20T03:22:40.417Z,1.67
2023-12-20T03:24:02.603Z,1.43
2023-12-20T03:25:24.679Z,1.97
2023-12-20T03:26:46.786Z,1.60
2023-12-20T03:28:08.952Z,1.63
2023-12-20T03:29:31.026Z,1.50
2023-12-20T03:30:53.320Z,2.13
2023-12-20T03:32:15.440Z,1.67
2023-12-20T03:33:37.654Z,1.37
2023-12-20T03:34:59.947Z,1.60
2023-12-20T03:36:22.291Z,1.30
2023-12-20T03:37:44.820Z,1.50
2023-12-20T03:39:07.112Z,1.80
2023-12-20T03:40:29.349Z,1.57
2023-12-20T03:41:51.502Z,1.80
2023-12-20T03:43:13.734Z,2.17
2023-12-20T03:44:35.874Z,1.80
2023-12-20T03:45:59.877Z,1.43
2023-12-20T03:47:22.081Z,1.90
2023-12-20T03:48:44.196Z,1.83
2023-12-20T03:50:06.917Z,1.70
2023-12-20T03:51:29.082Z,1.80
2023-12-20T03:52:51.201Z,1.30
2023-12-20T03:54:13.334Z,0.93
2023-12-20T03:55:35.398Z,1.73
2023-12-20T03:56:57.522Z,1.43
2023-12-20T03:58:19.659Z,2.07
2023-12-20T03:59:41.892Z,1.57
2023-12-20T04:01:04.213Z,1.53
2023-12-20T04:02:26.377Z,1.20
2023-12-20T04:03:48.500Z,2.87
2023-12-20T04:05:11.670Z,1.20
2023-12-20T04:06:34.056Z,1.63
2023-12-20T04:07:56.259Z,1.57
2023-12-20T04:09:18.448Z,1.40
2023-12-20T04:10:40.613Z,1.80
2023-12-20T04:12:02.757Z,1.20
2023-12-20T04:13:24.887Z,1.70
2023-12-20T04:14:46.965Z,1.40
2023-12-20T04:16:09.063Z,1.53
2023-12-20T04:17:31.326Z,1.90
2023-12-20T04:18:53.582Z,1.47
2023-12-20T04:20:15.863Z,3.90
2023-12-20T04:21:38.097Z,2.23
2023-12-20T04:23:00.168Z,1.87
2023-12-20T04:24:23.292Z,1.70
2023-12-20T04:25:45.406Z,2.00
2023-12-20T04:27:07.768Z,1.77
2023-12-20T04:28:31.499Z,2.10
2023-12-20T04:29:53.766Z,1.90
2023-12-20T04:31:15.971Z,1.63
2023-12-20T04:32:38.170Z,1.57
2023-12-20T04:34:00.337Z,3.33
2023-12-20T04:35:22.471Z,1.70
2023-12-20T04:36:44.666Z,1.40
2023-12-20T04:38:06.941Z,1.40
2023-12-20T04:39:29.067Z,1.57
2023-12-20T04:40:51.206Z,2.20
2023-12-20T04:42:13.340Z,1.90
2023-12-20T04:43:35.437Z,2.30
2023-12-20T04:44:57.551Z,1.80
2023-12-20T04:46:19.778Z,1.50
2023-12-20T04:47:43.709Z,1.70
2023-12-20T04:49:06.265Z,1.63
2023-12-20T04:50:28.389Z,1.63
2023-12-20T04:51:50.549Z,1.73
2023-12-20T04:53:12.665Z,1.53
2023-12-20T04:54:34.793Z,2.03
2023-12-20T04:55:56.879Z,1.70
2023-12-20T04:57:19.040Z,1.93
2023-12-20T04:58:41.127Z,1.73
2023-12-20T05:00:04.358Z,1.90
2023-12-20T05:01:26.655Z,2.67
2023-12-20T05:02:48.814Z,1.87
2023-12-20T05:04:11.083Z,1.93
2023-12-20T05:05:33.318Z,1.63
2023-12-20T05:06:55.619Z,1.60
2023-12-20T05:08:17.933Z,1.63
2023-12-20T05:09:40.293Z,1.40
2023-12-20T05:11:02.505Z,1.20
2023-12-20T05:12:24.657Z,2.93
2023-12-20T05:13:50.420Z,1.20
2023-12-20T05:15:13.078Z,3.30
2023-12-20T05:16:35.174Z,2.10
2023-12-20T05:17:57.410Z,1.50
2023-12-20T05:19:19.629Z,1.40
2023-12-20T05:20:41.867Z,2.20
2023-12-20T05:22:04.425Z,2.30
2023-12-20T05:23:26.558Z,1.77
2023-12-20T05:24:48.698Z,1.83
2023-12-20T05:26:11.008Z,2.33
2023-12-20T05:27:33.106Z,2.20
2023-12-20T05:28:55.197Z,1.70
2023-12-20T05:30:17.481Z,1.60
2023-12-20T05:31:39.705Z,2.40
2023-12-20T05:33:02.090Z,2.43
2023-12-20T05:34:24.415Z,2.20
2023-12-20T05:35:46.619Z,1.87
2023-12-20T05:37:08.776Z,2.20
2023-12-20T05:38:30.904Z,2.70
2023-12-20T05:39:53.037Z,2.23
2023-12-20T05:41:15.217Z,1.60
2023-12-20T05:42:38.893Z,2.30
2023-12-20T05:44:01.029Z,2.60
2023-12-20T05:45:23.127Z,2.23
2023-12-20T05:46:45.241Z,1.97
2023-12-20T05:48:07.653Z,2.10
2023-12-20T05:49:29.981Z,2.33
2023-12-20T05:50:52.103Z,2.53
2023-12-20T05:52:14.271Z,2.90
2023-12-20T05:53:36.376Z,2.03
2023-12-20T05:55:02.167Z,2.60
2023-12-20T05:56:24.341Z,3.00
2023-12-20T05:57:46.849Z,2.27
2023-12-20T05:59:09.259Z,2.33
2023-12-20T06:00:31.354Z,2.30
2023-12-20T06:01:53.621Z,2.30
2023-12-20T06:03:15.784Z,2.67
2023-12-20T06:04:37.950Z,1.57
2023-12-20T06:06:10.770Z,1.87
2023-12-20T06:07:38.072Z,2.00
2023-12-20T06:09:00.327Z,2.27
2023-12-20T06:10:23.254Z,2.50
2023-12-20T06:11:45.556Z,2.53
2023-12-20T06:13:08.041Z,2.40
2023-12-20T06:14:31.731Z,2.07
2023-12-20T06:15:55.650Z,2.30
2023-12-20T06:17:17.844Z,2.20
2023-12-20T06:18:39.977Z,2.30
2023-12-20T06:20:02.980Z,2.47
2023-12-20T06:21:25.365Z,2.70
2023-12-20T06:22:47.463Z,3.00
2023-12-20T06:24:10.736Z,2.23
2023-12-20T06:25:32.826Z,2.53
2023-12-20T06:26:56.326Z,2.40
2023-12-20T06:28:18.480Z,3.20
2023-12-20T06:29:42.150Z,2.60
2023-12-20T06:31:05.063Z,2.50
2023-12-20T06:32:27.264Z,2.40
2023-12-20T06:33:58.395Z,3.33
2023-12-20T06:35:20.815Z,2.50
2023-12-20T06:36:43.041Z,2.43
2023-12-20T06:38:05.366Z,2.60
2023-12-20T06:39:27.536Z,2.20
2023-12-20T06:40:49.729Z,2.33
2023-12-20T06:42:12.037Z,2.47
2023-12-20T06:43:43.568Z,2.50
2023-12-20T06:45:11.768Z,3.73
2023-12-20T06:46:33.943Z,2.20
2023-12-20T06:47:56.122Z,2.17
2023-12-20T06:49:19.693Z,3.17
2023-12-20T06:50:41.873Z,2.17
2023-12-20T06:52:04.384Z,2.57
2023-12-20T06:53:26.542Z,2.97
2023-12-20T06:54:48.692Z,2.30
2023-12-20T06:56:17.927Z,3.87
2023-12-20T06:57:41.779Z,3.17
2023-12-20T06:59:03.852Z,2.33
2023-12-20T07:00:25.971Z,2.27
2023-12-20T07:01:51.426Z,2.70
2023-12-20T07:03:13.629Z,2.33
2023-12-20T07:04:40.045Z,2.40
2023-12-20T07:06:02.247Z,2.47
2023-12-20T07:07:25.565Z,1.60
2023-12-20T07:08:47.906Z,2.03
2023-12-20T07:10:10.424Z,1.93
2023-12-20T07:11:32.896Z,2.20
2023-12-20T07:12:56.236Z,2.10
2023-12-20T07:15:41.857Z,2.87
2023-12-20T07:17:04.205Z,2.33
2023-12-20T07:18:26.437Z,2.23
2023-12-20T07:19:48.692Z,2.27
2023-12-20T07:21:10.915Z,2.10
2023-12-20T07:22:33.454Z,2.80
2023-12-20T07:23:55.644Z,2.00
2023-12-20T07:25:17.838Z,1.93
2023-12-20T07:26:40.597Z,2.80
2023-12-20T07:28:02.753Z,2.33
2023-12-20T07:29:26.339Z,1.80
2023-12-20T07:30:48.576Z,1.50
2023-12-20T07:32:10.737Z,2.53
2023-12-20T07:33:39.141Z,2.03
2023-12-20T07:35:04.228Z,2.03
2023-12-20T07:36:26.459Z,2.13
2023-12-20T07:37:48.695Z,2.60
2023-12-20T07:39:11.346Z,2.00
2023-12-20T07:40:33.482Z,1.70
2023-12-20T07:41:55.677Z,2.43
2023-12-20T07:43:17.827Z,2.27
2023-12-20T07:44:40.008Z,2.03
2023-12-20T07:46:07.181Z,2.53
2023-12-20T07:47:29.353Z,2.40
2023-12-20T07:48:51.751Z,2.33
2023-12-20T07:50:14.122Z,1.70
2023-12-20T07:51:36.534Z,2.43
2023-12-20T07:53:00.733Z,2.23
2023-12-20T07:54:24.572Z,2.40
2023-12-20T07:55:47.220Z,2.20
2023-12-20T07:57:09.306Z,2.80
2023-12-20T07:58:40.991Z,2.60
2023-12-20T08:00:13.052Z,2.53
2023-12-20T08:01:35.242Z,2.70
2023-12-20T08:02:57.369Z,2.63
2023-12-20T08:04:20.027Z,2.20
2023-12-20T08:05:42.275Z,2.17
2023-12-20T08:07:05.125Z,2.47
2023-12-20T08:08:27.333Z,2.27
2023-12-20T08:09:49.426Z,3.30
2023-12-20T08:11:11.561Z,2.30
2023-12-20T08:12:34.739Z,2.40
2023-12-20T08:13:56.848Z,2.33
2023-12-20T08:15:19.025Z,1.90
2023-12-20T08:16:41.314Z,2.87
2023-12-20T08:18:03.612Z,2.80
2023-12-20T08:19:25.972Z,2.50
2023-12-20T08:20:49.552Z,2.10
2023-12-20T08:22:12.710Z,1.57
2023-12-20T08:23:35.390Z,1.90
2023-12-20T08:24:57.574Z,1.93
2023-12-20T08:26:24.064Z,2.10
2023-12-20T08:27:46.460Z,1.57
2023-12-20T08:29:08.729Z,1.90
2023-12-20T08:30:32.120Z,2.20
2023-12-20T08:31:57.841Z,1.57
2023-12-20T08:33:20.258Z,1.73
2023-12-20T08:34:42.545Z,1.30
2023-12-20T08:36:06.618Z,1.80
2023-12-20T08:37:28.821Z,1.70
2023-12-20T08:38:51.568Z,2.17
2023-12-20T08:40:13.821Z,1.83
2023-12-20T08:41:36.675Z,2.20
2023-12-20T08:42:58.891Z,1.87
2023-12-20T08:44:23.437Z,2.30
2023-12-20T08:45:45.580Z,2.10
2023-12-20T08:47:08.440Z,2.53
2023-12-20T08:48:30.817Z,2.30
2023-12-20T08:49:57.525Z,2.43
2023-12-20T08:51:20.434Z,2.20
2023-12-20T08:52:43.220Z,2.20
2023-12-20T08:54:08.931Z,2.20
2023-12-20T08:55:32.329Z,2.07
2023-12-20T08:56:54.531Z,2.20
2023-12-20T08:58:16.719Z,2.47
2023-12-20T08:59:39.113Z,2.13
2023-12-20T09:01:01.451Z,2.10
2023-12-20T09:02:23.655Z,2.37
2023-12-20T09:03:45.839Z,2.50
2023-12-20T09:05:08.502Z,2.47
2023-12-20T09:06:30.720Z,2.63
2023-12-20T09:07:52.842Z,2.40
2023-12-20T09:09:15.709Z,2.67
2023-12-20T09:10:38.746Z,3.30
2023-12-20T09:12:00.902Z,2.37
2023-12-20T09:13:27.800Z,2.30
2023-12-20T09:14:51.279Z,2.20
2023-12-20T09:16:14.342Z,2.70
2023-12-20T09:17:36.628Z,2.17
2023-12-20T09:18:59.193Z,2.20
2023-12-20T09:20:21.535Z,2.63
2023-12-20T09:21:43.749Z,2.90
2023-12-20T09:23:05.826Z,2.40
2023-12-20T09:24:28.099Z,2.43
2023-12-20T09:25:50.272Z,3.20
2023-12-20T09:27:12.395Z,3.00
2023-12-20T09:28:38.062Z,2.63
2023-12-20T09:30:00.487Z,2.70
2023-12-20T09:31:23.279Z,2.60
2023-12-20T09:32:47.979Z,1.83
2023-12-20T09:34:10.509Z,2.20
2023-12-20T09:35:32.925Z,2.57
2023-12-20T09:36:55.178Z,2.63
2023-12-20T09:38:18.451Z,2.40
2023-12-20T09:39:40.617Z,2.37
2023-12-20T09:41:05.417Z,2.10
2023-12-20T09:43:21.045Z,2.50
2023-12-20T09:44:47.796Z,2.80
2023-12-20T09:46:13.244Z,2.30
2023-12-20T09:47:36.206Z,2.80
2023-12-20T09:48:59.380Z,2.67
2023-12-20T09:50:23.213Z,2.20
2023-12-20T09:51:47.785Z,2.20
2023-12-20T09:53:12.954Z,2.17
2023-12-20T09:54:35.165Z,2.20
2023-12-20T09:56:03.239Z,1.93
2023-12-20T09:57:25.392Z,2.03
2023-12-20T09:58:48.160Z,1.90
2023-12-20T10:00:11.094Z,2.13
2023-12-20T10:01:34.023Z,1.70
2023-12-20T10:03:00.991Z,2.63
2023-12-20T10:04:29.491Z,2.27
2023-12-20T10:05:57.673Z,2.30
2023-12-20T10:07:20.006Z,2.50
2023-12-20T10:08:42.200Z,1.83
2023-12-20T10:10:05.552Z,2.20
2023-12-20T10:11:29.077Z,2.30
2023-12-20T10:13:04.821Z,2.27
2023-12-20T10:14:26.983Z,2.53
2023-12-20T10:15:51.173Z,2.00
2023-12-20T10:17:13.430Z,2.03
2023-12-20T10:18:38.619Z,2.10
2023-12-20T10:20:02.220Z,3.10
2023-12-20T10:21:27.285Z,2.33
2023-12-20T10:22:50.052Z,2.37
2023-12-20T10:24:18.749Z,2.73
2023-12-20T10:25:42.764Z,2.07
2023-12-20T10:27:09.608Z,2.53
2023-12-20T10:28:36.221Z,1.70
2023-12-20T10:30:00.138Z,2.70
2023-12-20T10:31:28.149Z,2.40
2023-12-20T10:32:50.367Z,2.20
2023-12-20T10:34:12.556Z,2.30
2023-12-20T10:35:36.012Z,2.63
2023-12-20T10:37:00.761Z,2.20
2023-12-20T10:38:23.282Z,2.30
2023-12-20T10:39:50.140Z,2.30
2023-12-20T10:41:13.879Z,1.83
2023-12-20T10:42:38.406Z,1.87
2023-12-20T10:44:02.172Z,2.17
2023-12-20T10:45:24.911Z,2.37
2023-12-20T10:46:52.282Z,2.70
2023-12-20T10:48:14.634Z,2.30
2023-12-20T10:49:38.928Z,2.20
2023-12-20T10:51:03.005Z,2.63
2023-12-20T10:52:26.374Z,2.30
2023-12-20T10:53:51.450Z,2.03
2023-12-20T10:55:14.228Z,1.93
2023-12-20T10:56:39.178Z,1.70
2023-12-20T10:58:09.638Z,2.37
2023-12-20T11:00:05.409Z,2.37
2023-12-20T11:04:16.412Z,3.23
2023-12-20T11:05:44.380Z,2.27
2023-12-20T11:07:38.873Z,2.07
2023-12-20T11:09:18.891Z,1.87
2023-12-20T11:10:57.619Z,1.87
2023-12-20T11:12:46.439Z,1.73
2023-12-20T11:14:16.493Z,2.00
2023-12-20T11:15:38.685Z,3.27
2023-12-20T11:17:15.273Z,2.50
2023-12-20T11:18:37.627Z,1.80
2023-12-20T11:20:00.676Z,1.70
2023-12-20T11:21:22.943Z,1.67
2023-12-20T11:22:55.342Z,2.43
2023-12-20T11:24:20.915Z,1.60
2023-12-20T11:25:53.520Z,2.07
2023-12-20T11:27:16.053Z,2.47
2023-12-20T11:28:38.392Z,2.40
2023-12-20T11:30:01.993Z,1.83
2023-12-20T11:31:24.223Z,1.63
2023-12-20T11:32:47.536Z,1.93
2023-12-20T11:34:16.059Z,1.93
2023-12-20T11:35:39.437Z,1.90
2023-12-20T11:37:03.389Z,1.70
2023-12-20T11:38:25.778Z,2.07
2023-12-20T11:39:57.413Z,1.73
2023-12-20T11:41:19.574Z,2.00
2023-12-20T11:42:43.025Z,2.10
2023-12-20T11:44:05.890Z,1.60
2023-12-20T11:45:30.933Z,2.57
2023-12-20T11:46:55.069Z,2.60
2023-12-20T11:48:17.341Z,2.00
2023-12-20T11:49:39.558Z,2.03
2023-12-20T11:51:01.881Z,2.40
2023-12-20T11:52:24.184Z,2.90
2023-12-20T11:53:46.409Z,2.63
2023-12-20T11:55:08.710Z,2.10
2023-12-20T11:56:30.863Z,1.40
2023-12-20T11:57:53.739Z,1.60
2023-12-20T11:59:23.104Z,1.03
2023-12-20T12:00:46.199Z,1.90
2023-12-20T12:02:08.582Z,1.50
2023-12-20T12:03:34.102Z,1.20
2023-12-20T12:04:57.653Z,0.90
2023-12-20T12:06:20.096Z,1.20
2023-12-20T12:07:42.396Z,1.20
2023-12-20T12:09:05.714Z,1.00
2023-12-20T12:10:27.959Z,0.93
2023-12-20T12:11:50.357Z,0.70
2023-12-20T12:13:12.981Z,1.00
2023-12-20T12:14:36.406Z,0.97
2023-12-20T12:16:00.296Z,0.80
2023-12-20T12:17:22.483Z,1.00
2023-12-20T12:18:44.753Z,0.70
2023-12-20T12:20:08.219Z,1.17
2023-12-20T12:21:33.345Z,1.40
2023-12-20T12:23:04.402Z,1.10
2023-12-20T12:24:26.464Z,0.67
2023-12-20T12:25:49.714Z,0.80
2023-12-20T12:27:13.714Z,0.97
2023-12-20T12:28:36.411Z,0.63
2023-12-20T12:30:04.921Z,0.70
2023-12-20T12:31:28.933Z,0.87
2023-12-20T12:32:53.428Z,0.60
2023-12-20T12:34:15.829Z,0.70
2023-12-20T12:35:38.893Z,1.20
2023-12-20T12:37:01.359Z,0.70
2023-12-20T12:38:24.909Z,0.80
2023-12-20T12:39:48.169Z,0.90
2023-12-20T12:41:11.256Z,0.90
2023-12-20T12:42:33.613Z,0.70
2023-12-20T12:43:57.658Z,0.70
2023-12-20T12:45:21.295Z,1.00
2023-12-20T12:46:43.487Z,0.80
2023-12-20T12:48:09.508Z,0.60
2023-12-20T12:49:31.802Z,0.70
2023-12-20T12:50:55.452Z,0.80
2023-12-20T12:52:17.676Z,0.70
2023-12-20T12:53:39.820Z,0.60
2023-12-20T12:55:02.072Z,1.80
2023-12-20T12:56:24.287Z,0.60
2023-12-20T12:57:46.728Z,0.60
2023-12-20T12:59:10.203Z,0.70
2023-12-20T13:00:32.306Z,1.33
2023-12-20T13:01:54.828Z,1.10
2023-12-20T13:03:17.121Z,0.70
2023-12-20T13:04:39.360Z,0.77
2023-12-20T13:06:01.632Z,1.17
2023-12-20T13:07:23.846Z,0.90
2023-12-20T13:08:46.327Z,1.00
2023-12-20T13:10:08.849Z,1.10
2023-12-20T13:11:32.381Z,1.10
2023-12-20T13:12:54.627Z,1.10
2023-12-20T13:14:17.527Z,0.83
2023-12-20T13:15:39.737Z,1.03
2023-12-20T13:17:05.204Z,0.90
2023-12-20T13:18:27.366Z,0.90
2023-12-20T13:19:50.896Z,0.80
2023-12-20T13:21:13.082Z,1.00
2023-12-20T13:22:35.273Z,0.97
2023-12-20T13:23:57.410Z,1.00
2023-12-20T13:25:19.591Z,1.00
2023-12-20T13:26:41.758Z,1.00
2023-12-20T13:28:04.758Z,0.67
2023-12-20T13:29:29.806Z,0.80
2023-12-20T13:30:52.080Z,0.80
2023-12-20T13:32:14.376Z,1.23
2023-12-20T13:33:36.595Z,0.93
2023-12-20T13:34:58.782Z,0.83
2023-12-20T13:36:21.227Z,1.00
2023-12-20T13:37:43.764Z,0.70
2023-12-20T13:39:06.261Z,1.03
2023-12-20T13:40:29.826Z,1.10
2023-12-20T13:41:52.099Z,1.10
2023-12-20T13:43:15.130Z,0.80
2023-12-20T13:44:37.407Z,0.70
2023-12-20T13:46:00.504Z,0.70
2023-12-20T13:47:24.785Z,1.10
2023-12-20T13:48:47.319Z,1.20
2023-12-20T13:50:09.761Z,1.10
2023-12-20T13:51:32.059Z,1.00
2023-12-20T13:52:54.197Z,0.90
2023-12-20T13:54:17.894Z,1.20
2023-12-20T13:55:40.181Z,1.57
2023-12-20T13:57:09.490Z,1.30
2023-12-20T13:58:39.035Z,1.10
2023-12-20T14:00:01.532Z,1.33
2023-12-20T14:01:24.829Z,1.03
2023-12-20T14:02:47.416Z,1.50
2023-12-20T14:04:09.541Z,1.27
2023-12-20T14:05:32.624Z,1.10
2023-12-20T14:06:55.651Z,1.40
2023-12-20T14:08:17.833Z,1.00
2023-12-20T14:09:39.964Z,1.00
2023-12-20T14:11:02.472Z,0.97
2023-12-20T14:12:24.974Z,1.70
2023-12-20T14:13:47.093Z,0.90
2023-12-20T14:15:11.887Z,1.30
2023-12-20T14:16:34.419Z,1.30
2023-12-20T14:17:56.945Z,1.43
2023-12-20T14:19:19.317Z,1.50
2023-12-20T14:20:43.246Z,1.20
2023-12-20T14:22:05.705Z,1.20
2023-12-20T14:23:27.924Z,1.60
2023-12-20T14:24:50.269Z,1.20
2023-12-20T14:26:15.350Z,1.60
2023-12-20T14:27:37.909Z,1.47
2023-12-20T14:29:00.014Z,1.43
2023-12-20T14:30:22.157Z,1.00
2023-12-20T14:31:44.297Z,1.30
2023-12-20T14:33:06.441Z,1.20
2023-12-20T14:34:28.705Z,1.43
2023-12-20T14:35:50.935Z,1.23
2023-12-20T14:37:13.502Z,1.50
2023-12-20T14:38:36.376Z,1.50
2023-12-20T14:39:58.482Z,1.50
2023-12-20T14:41:20.793Z,1.50
2023-12-20T14:42:47.079Z,1.50
2023-12-20T14:44:09.218Z,1.70
2023-12-20T14:45:31.300Z,1.63
2023-12-20T14:46:53.373Z,1.33
2023-12-20T14:48:15.606Z,1.50
2023-12-20T14:49:38.737Z,1.53
2023-12-20T14:51:01.210Z,1.50
2023-12-20T14:52:24.343Z,1.90
2023-12-20T14:53:48.227Z,1.43
2023-12-20T14:55:10.578Z,1.60
2023-12-20T14:56:32.753Z,1.40
2023-12-20T14:57:54.945Z,1.47
2023-12-20T14:59:17.159Z,1.70
2023-12-20T15:00:39.399Z,2.10
2023-12-20T15:02:03.986Z,1.70
2023-12-20T15:03:26.207Z,2.23
2023-12-20T15:04:48.312Z,1.87
2023-12-20T15:06:12.875Z,2.13
2023-12-20T15:07:36.224Z,1.70
2023-12-20T15:08:58.379Z,2.20
2023-12-20T15:10:20.711Z,2.20
2023-12-20T15:11:42.900Z,1.90
2023-12-20T15:13:05.185Z,1.60
2023-12-20T15:14:29.078Z,2.80
2023-12-20T15:15:51.239Z,2.17
2023-12-20T15:17:13.378Z,2.00
2023-12-20T15:18:35.539Z,2.10
2023-12-20T15:19:57.786Z,1.73
2023-12-20T15:21:20.313Z,1.63
2023-12-20T15:22:42.594Z,2.07
2023-12-20T15:24:14.545Z,1.70
2023-12-20T15:25:37.443Z,2.00
2023-12-20T15:26:59.546Z,2.20
2023-12-20T15:28:21.667Z,2.27
2023-12-20T15:29:44.813Z,2.70
2023-12-20T15:31:07.654Z,1.90
2023-12-20T15:32:30.130Z,2.00
2023-12-20T15:33:52.277Z,1.67
2023-12-20T15:35:14.526Z,1.80
2023-12-20T15:36:36.805Z,1.70
2023-12-20T15:37:59.932Z,1.90
2023-12-20T15:39:22.748Z,1.97
2023-12-20T15:40:45.160Z,2.17
2023-12-20T15:42:07.403Z,2.30
2023-12-20T15:43:29.630Z,2.10
2023-12-20T15:44:51.987Z,2.33
2023-12-20T15:46:14.861Z,1.87
2023-12-20T15:47:37.465Z,2.10
2023-12-20T15:48:59.810Z,2.30
2023-12-20T15:50:22.108Z,2.40
2023-12-20T15:51:44.266Z,2.90
2023-12-20T15:53:06.418Z,2.40
2023-12-20T15:54:28.553Z,1.93
2023-12-20T15:55:50.736Z,2.60
2023-12-20T15:57:12.945Z,2.30
2023-12-20T15:58:35.136Z,2.50
2023-12-20T15:59:57.624Z,2.63
2023-12-20T16:01:19.874Z,2.20
2023-12-20T16:02:42.237Z,2.20
2023-12-20T16:04:04.636Z,2.40
2023-12-20T16:05:26.846Z,2.20
2023-12-20T16:06:49.203Z,2.13
2023-12-20T16:08:11.504Z,2.23
2023-12-20T16:09:33.631Z,2.40
2023-12-20T16:10:55.865Z,2.73
2023-12-20T16:12:17.942Z,2.83
2023-12-20T16:13:40.091Z,3.17
2023-12-20T16:15:02.470Z,3.07
2023-12-20T16:16:24.672Z,3.27
2023-12-20T16:17:47.030Z,3.10
2023-12-20T16:19:09.467Z,2.93
2023-12-20T16:20:32.465Z,3.20
2023-12-20T16:21:54.635Z,3.03
2023-12-20T16:23:16.817Z,3.97
2023-12-20T16:24:40.321Z,2.70
2023-12-20T16:26:02.438Z,2.70
2023-12-20T16:27:24.524Z,2.73
2023-12-20T16:28:46.741Z,3.07
2023-12-20T16:30:09.068Z,2.67
2023-12-20T16:31:31.299Z,2.20
2023-12-20T16:32:53.544Z,3.20
2023-12-20T16:34:15.741Z,2.90
2023-12-20T16:35:38.286Z,3.37
2023-12-20T16:37:00.447Z,3.90
2023-12-20T16:38:22.616Z,3.20
2023-12-20T16:39:44.994Z,2.40
2023-12-20T16:41:07.119Z,3.17
2023-12-20T16:42:29.884Z,2.80
2023-12-20T16:43:52.051Z,2.13
2023-12-20T16:45:14.137Z,2.50
2023-12-20T16:46:36.376Z,3.37
2023-12-20T16:47:58.623Z,2.67
2023-12-20T16:49:20.853Z,2.87
2023-12-20T16:50:45.691Z,2.77
2023-12-20T16:52:07.860Z,3.13
2023-12-20T16:53:30.071Z,2.20
2023-12-20T16:54:52.311Z,2.40
2023-12-20T16:56:14.412Z,3.03
2023-12-20T16:57:36.804Z,2.17
2023-12-20T16:58:58.920Z,2.33
2023-12-20T17:00:23.740Z,2.70
2023-12-20T17:01:46.715Z,3.13
2023-12-20T17:03:09.070Z,2.77
2023-12-20T17:04:33.691Z,2.60
2023-12-20T17:05:55.980Z,2.93
2023-12-20T17:07:18.264Z,2.70
2023-12-20T17:08:40.524Z,3.20
2023-12-20T17:10:02.884Z,3.30
2023-12-20T17:11:25.092Z,3.47
2023-12-20T17:12:47.321Z,2.50
2023-12-20T17:14:11.567Z,3.20
2023-12-20T17:15:33.702Z,2.67
2023-12-20T17:16:56.010Z,4.30
2023-12-20T17:18:18.212Z,2.77
2023-12-20T17:19:42.460Z,3.30
2023-12-20T17:21:05.336Z,3.43
2023-12-20T17:22:27.645Z,3.23
2023-12-20T17:23:50.106Z,3.10
2023-12-20T17:25:12.783Z,3.40
2023-12-20T17:26:34.979Z,2.70
2023-12-20T17:27:57.924Z,3.57
2023-12-20T17:29:20.132Z,2.60
2023-12-20T17:30:44.918Z,3.30
2023-12-20T17:32:08.964Z,2.90
2023-12-20T17:33:31.223Z,3.27
2023-12-20T17:34:53.483Z,3.20
2023-12-20T17:36:17.896Z,4.20
2023-12-20T17:37:40.242Z,2.80
2023-12-20T17:39:02.439Z,3.50
2023-12-20T17:40:24.564Z,3.33
2023-12-20T17:41:47.017Z,4.07
2023-12-20T17:43:11.005Z,3.40
2023-12-20T17:44:33.209Z,3.27
2023-12-20T17:45:55.393Z,3.10
2023-12-20T17:47:17.556Z,4.93
2023-12-20T17:48:39.716Z,4.20
2023-12-20T17:50:02.366Z,4.30
2023-12-20T17:51:24.663Z,3.83
2023-12-20T17:52:46.934Z,3.70
2023-12-20T17:54:09.357Z,3.63
2023-12-20T17:55:31.652Z,3.80
2023-12-20T17:56:54.293Z,3.90
2023-12-20T17:58:18.454Z,3.50
2023-12-20T17:59:42.775Z,3.50
2023-12-20T18:01:05.162Z,3.77
2023-12-20T18:02:27.412Z,3.83
2023-12-20T18:03:49.656Z,4.47
2023-12-20T18:05:12.080Z,3.50
2023-12-20T18:06:34.369Z,3.30
2023-12-20T18:07:56.594Z,3.60
2023-12-20T18:09:18.917Z,3.57
2023-12-20T18:10:41.851Z,3.50
2023-12-20T18:12:04.279Z,4.97
2023-12-20T18:13:26.448Z,4.10
2023-12-20T18:14:49.843Z,3.63
2023-12-20T18:16:12.010Z,3.77
2023-12-20T18:17:34.299Z,3.63
2023-12-20T18:18:56.825Z,3.17
2023-12-20T18:20:19.386Z,3.70
2023-12-20T18:21:41.692Z,3.70
2023-12-20T18:23:04.012Z,3.37
2023-12-20T18:24:26.275Z,5.13
2023-12-20T18:25:48.561Z,4.83
2023-12-20T18:27:11.601Z,5.47
2023-12-20T18:28:34.269Z,3.73
2023-12-20T18:30:05.033Z,4.90
2023-12-20T18:31:31.350Z,4.50
2023-12-20T18:32:53.792Z,4.53